Time;durP1;ratioP1;P1;durP2;ratioP2;P2;SDS_P1;SDS_P2;PMS_P1;PMS_P2;Temp;Humidity;BMP_temperature;BMP_pressure;BME280_temperature;BME280_humidity;BME280_pressure;Samples;Min_cycle;Max_cycle;Signal;HPM_P1;HPM_P2
2023/10/20 00:00:44;;;;;;;23.58;18.30;;;;;;;13.75;100.00;98679.78;5091974;28;20047;-75
2023/10/20 00:03:11;;;;;;;28.20;19.73;;;;;;;13.73;100.00;98676.88;5091619;28;20045;-75
2023/10/20 00:05:37;;;;;;;25.15;18.98;;;;;;;13.71;100.00;98674.00;5091890;28;20486;-75
2023/10/20 00:08:04;;;;;;;28.35;19.95;;;;;;;13.68;100.00;98668.44;5092259;28;20086;-77
2023/10/20 00:10:39;;;;;;;26.55;19.85;;;;;;;13.66;100.00;98662.16;5091663;28;20047;-76
2023/10/20 00:13:06;;;;;;;35.10;20.90;;;;;;;13.66;100.00;98662.16;5091753;28;20052;-77
2023/10/20 00:15:34;;;;;;;27.88;20.42;;;;;;;13.64;100.00;98654.66;5091831;28;20094;-77
2023/10/20 00:18:02;;;;;;;25.90;20.38;;;;;;;13.62;100.00;98651.03;5091989;28;20068;-76
2023/10/20 00:20:29;;;;;;;32.95;20.58;;;;;;;13.59;100.00;98668.13;5093701;28;20575;-75
2023/10/20 00:22:56;;;;;;;37.47;21.92;;;;;;;13.57;100.00;98670.59;5095313;28;20047;-75
2023/10/20 00:25:23;;;;;;;32.63;20.95;;;;;;;13.53;100.00;98670.88;5094974;28;20049;-74
2023/10/20 00:27:49;;;;;;;30.02;20.63;;;;;;;13.50;100.00;98666.53;5094992;28;20044;-74
2023/10/20 00:30:16;;;;;;;30.92;20.00;;;;;;;13.47;100.00;98667.56;5093428;28;20083;-75
2023/10/20 00:32:45;;;;;;;31.00;20.60;;;;;;;13.46;100.00;98665.41;5093555;28;20132;-75
2023/10/20 00:35:13;;;;;;;30.48;19.30;;;;;;;13.42;100.00;98651.59;5093399;28;20138;-74
2023/10/20 00:37:40;;;;;;;28.25;20.30;;;;;;;13.38;100.00;98667.22;5094410;28;20040;-75
2023/10/20 00:40:10;;;;;;;26.27;19.50;;;;;;;13.35;100.00;98668.94;5093543;28;20106;-74
2023/10/20 00:42:37;;;;;;;28.33;19.35;;;;;;;13.31;100.00;98661.22;5094346;28;20067;-74
2023/10/20 00:45:05;;;;;;;30.05;19.30;;;;;;;13.30;100.00;98664.41;5095188;28;20044;-75
2023/10/20 00:47:34;;;;;;;29.17;19.88;;;;;;;13.25;100.00;98652.56;5093071;28;20048;-75
2023/10/20 00:50:02;;;;;;;28.98;19.73;;;;;;;13.25;100.00;98663.25;5094489;28;20517;-75
2023/10/20 00:52:30;;;;;;;29.23;19.02;;;;;;;13.22;100.00;98647.50;5093148;28;20063;-74
2023/10/20 00:54:59;;;;;;;25.67;18.77;;;;;;;13.20;100.00;98653.34;5093374;28;20048;-74
2023/10/20 00:57:26;;;;;;;29.02;19.58;;;;;;;13.19;100.00;98643.19;5092467;28;20380;-75
2023/10/20 00:59:53;;;;;;;31.35;18.92;;;;;;;13.17;100.00;98634.97;5094874;28;20577;-74
2023/10/20 01:02:20;;;;;;;26.33;19.23;;;;;;;13.16;100.00;98630.84;5094205;28;20079;-75
2023/10/20 01:04:47;;;;;;;28.70;18.80;;;;;;;13.14;100.00;98625.25;5092750;28;20053;-75
2023/10/20 01:07:14;;;;;;;28.35;19.52;;;;;;;13.11;100.00;98627.00;5093090;28;20553;-75
2023/10/20 01:09:44;;;;;;;28.42;19.17;;;;;;;13.09;100.00;98610.03;5094503;28;20049;-75
2023/10/20 01:12:10;;;;;;;25.48;19.13;;;;;;;13.09;100.00;98610.03;5092351;28;20044;-75
2023/10/20 01:14:37;;;;;;;25.65;18.60;;;;;;;13.08;100.00;98598.63;5092757;28;20049;-75
2023/10/20 01:17:04;;;;;;;28.65;17.90;;;;;;;13.06;100.00;98597.69;5094400;28;20478;-75
2023/10/20 01:19:32;;;;;;;29.85;19.33;;;;;;;13.05;100.00;98596.97;5093831;28;20060;-75
2023/10/20 01:21:59;;;;;;;25.90;18.50;;;;;;;13.00;100.00;98595.81;5092929;28;20053;-74
2023/10/20 01:24:26;;;;;;;25.95;18.85;;;;;;;12.97;100.00;98601.44;5091933;28;20059;-75
2023/10/20 01:26:53;;;;;;;24.25;18.23;;;;;;;12.94;100.00;98611.19;5094562;28;20120;-75
2023/10/20 01:29:19;;;;;;;31.95;19.20;;;;;;;12.92;100.00;98597.63;5092226;28;20458;-75
2023/10/20 01:31:46;;;;;;;27.67;18.85;;;;;;;12.91;100.00;98595.47;5093754;28;20051;-75
2023/10/20 01:34:13;;;;;;;26.05;18.17;;;;;;;12.89;100.00;98592.56;5092276;28;20052;-76
2023/10/20 01:36:39;;;;;;;25.42;19.20;;;;;;;12.86;100.00;98583.63;5094075;28;20649;-76
2023/10/20 01:39:08;;;;;;;27.10;18.02;;;;;;;12.82;100.00;98572.50;5091874;28;20084;-76
2023/10/20 01:41:34;;;;;;;31.27;19.60;;;;;;;12.81;100.00;98562.34;5093960;28;20054;-75
2023/10/20 01:44:02;;;;;;;30.17;18.45;;;;;;;12.79;100.00;98565.53;5092569;28;20052;-76
2023/10/20 01:46:29;;;;;;;24.08;17.42;;;;;;;12.77;100.00;98564.59;5091959;28;20128;-75
2023/10/20 01:48:55;;;;;;;30.80;18.88;;;;;;;12.72;100.00;98555.44;5092609;28;20052;-76
2023/10/20 01:51:22;;;;;;;30.65;18.85;;;;;;;12.71;100.00;98550.59;5093317;28;20045;-75
2023/10/20 01:53:48;;;;;;;22.83;17.13;;;;;;;12.68;100.00;98547.00;5092155;28;20593;-76
2023/10/20 01:56:15;;;;;;;23.52;17.48;;;;;;;12.63;100.00;98547.78;5093182;28;20106;-76
2023/10/20 01:58:42;;;;;;;24.73;18.15;;;;;;;12.58;100.00;98551.97;5092136;28;20079;-76
2023/10/20 02:01:09;;;;;;;26.38;16.35;;;;;;;12.55;100.00;98550.31;5092148;28;20048;-74
2023/10/20 02:03:36;;;;;;;23.20;17.17;;;;;;;12.51;100.00;98552.53;5093522;28;20041;-74
2023/10/20 02:06:04;;;;;;;25.60;17.25;;;;;;;12.50;100.00;98537.75;5093749;28;20040;-75
2023/10/20 02:08:32;;;;;;;26.90;18.45;;;;;;;12.47;100.00;98535.38;5091339;28;20064;-75
2023/10/20 02:10:59;;;;;;;27.05;18.02;;;;;;;12.43;100.00;98535.66;5075626;28;20049;-75
2023/10/20 02:13:27;;;;;;;27.23;17.95;;;;;;;12.41;100.00;98524.75;5091307;28;20048;-74
2023/10/20 02:15:53;;;;;;;28.30;18.25;;;;;;;12.41;100.00;98524.75;5093550;28;20079;-75
2023/10/20 02:18:21;;;;;;;26.27;17.38;;;;;;;12.40;100.00;98526.00;5091201;28;20530;-75
2023/10/20 02:21:03;;;;;;;26.83;17.92;;;;;;;12.39;100.00;98531.84;5091904;28;20048;-75
2023/10/20 02:23:34;;;;;;;28.13;18.48;;;;;;;12.35;100.00;98521.47;5090699;28;20066;-75
2023/10/20 02:26:05;;;;;;;27.58;18.15;;;;;;;12.32;100.00;98525.16;5093319;28;20051;-74
2023/10/20 02:28:33;;;;;;;29.15;17.73;;;;;;;12.29;100.00;98491.47;5093187;28;20128;-74
2023/10/20 02:31:01;;;;;;;32.38;18.40;;;;;;;12.27;100.00;98486.63;5091920;28;20047;-74
2023/10/20 02:33:28;;;;;;;24.92;17.75;;;;;;;12.25;100.00;98475.75;5092730;28;20184;-75
2023/10/20 02:35:54;;;;;;;28.88;17.38;;;;;;;12.23;100.00;98472.88;5093324;28;20064;-75
2023/10/20 02:38:21;;;;;;;29.00;18.45;;;;;;;12.20;100.00;98460.53;5090236;28;20045;-75
2023/10/20 02:40:54;;;;;;;25.75;17.58;;;;;;;12.17;100.00;98458.88;5093409;28;20044;-75
2023/10/20 02:43:22;;;;;;;28.52;18.58;;;;;;;12.15;100.00;98458.66;5092051;28;20041;-75
2023/10/20 02:45:52;;;;;;;30.67;18.30;;;;;;;12.13;100.00;98455.78;5093046;28;20099;-75
2023/10/20 02:48:19;;;;;;;26.48;18.20;;;;;;;12.08;100.00;98451.22;5091464;28;20121;-75
2023/10/20 02:50:46;;;;;;;27.50;18.40;;;;;;;12.09;100.00;98451.94;5091577;28;20041;-75
2023/10/20 02:53:13;;;;;;;30.35;17.13;;;;;;;12.05;100.00;98443.50;5092212;28;20048;-76
2023/10/20 02:55:43;;;;;;;26.80;17.73;;;;;;;11.99;100.00;98440.94;5090408;28;20049;-75
2023/10/20 02:58:11;;;;;;;31.75;18.17;;;;;;;11.92;100.00;98433.50;5092677;28;20072;-75
2023/10/20 03:00:45;;;;;;;32.38;18.45;;;;;;;11.85;100.00;98420.75;5091079;28;20055;-75
2023/10/20 03:03:13;;;;;;;29.67;19.10;;;;;;;11.81;100.00;98417.63;5091045;28;20472;-76
2023/10/20 03:05:43;;;;;;;33.38;18.92;;;;;;;11.78;100.00;98414.03;5092292;28;20047;-76
2023/10/20 03:08:10;;;;;;;36.63;18.30;;;;;;;11.70;100.00;98411.19;5092162;28;20045;-75
2023/10/20 03:10:41;;;;;;;28.48;18.63;;;;;;;11.68;100.00;98410.25;5091197;28;20073;-76
2023/10/20 03:13:08;;;;;;;31.25;18.75;;;;;;;11.63;100.00;98405.69;5092527;28;20045;-75
2023/10/20 03:15:34;;;;;;;35.15;18.23;;;;;;;11.58;100.00;98409.88;5090899;28;20048;-76
2023/10/20 03:18:02;;;;;;;29.50;18.08;;;;;;;11.55;100.00;98413.56;5091068;28;20055;-76
2023/10/20 03:20:30;;;;;;;30.73;18.73;;;;;;;11.53;100.00;98417.94;5091528;28;20045;-76
2023/10/20 03:22:56;;;;;;;32.22;18.40;;;;;;;11.48;100.00;98405.41;5091130;28;20118;-76
2023/10/20 03:25:23;;;;;;;33.38;18.20;;;;;;;11.47;100.00;98386.03;5090677;28;20635;-76
2023/10/20 03:27:50;;;;;;;27.73;17.88;;;;;;;11.46;100.00;98383.88;5092682;28;20045;-76
2023/10/20 03:30:17;;;;;;;31.73;17.50;;;;;;;11.43;100.00;98385.59;5092170;28;20087;-76
2023/10/20 03:32:47;;;;;;;27.80;17.17;;;;;;;11.40;100.00;98375.22;5092482;28;20430;-76
2023/10/20 03:35:14;;;;;;;28.53;17.53;;;;;;;11.33;100.00;98369.22;5091987;28;20053;-75
2023/10/20 03:37:41;;;;;;;32.05;17.50;;;;;;;11.29;100.00;98368.06;5092197;28;20053;-76
2023/10/20 03:40:13;;;;;;;30.50;17.90;;;;;;;11.27;100.00;98368.56;5092147;28;20044;-76
2023/10/20 03:42:44;;;;;;;31.65;17.23;;;;;;;11.25;100.00;98367.59;5090516;28;20048;-76
2023/10/20 03:45:13;;;;;;;29.83;17.33;;;;;;;11.22;100.00;98372.00;5091955;28;20486;-76
2023/10/20 03:47:40;;;;;;;26.00;16.90;;;;;;;11.20;100.00;98373.72;5091917;28;20630;-76
2023/10/20 03:50:15;;;;;;;28.23;17.20;;;;;;;11.17;100.00;98375.47;5091610;28;20497;-76
2023/10/20 03:52:45;;;;;;;30.45;17.42;;;;;;;11.15;100.00;98379.84;5092131;28;20040;-76
2023/10/20 03:55:15;;;;;;;30.05;17.85;;;;;;;11.14;100.00;98373.06;5093305;28;20052;-76
2023/10/20 03:57:43;;;;;;;30.25;17.27;;;;;;;11.10;100.00;98364.63;5095327;28;20048;-75
2023/10/20 04:00:18;;;;;;;29.77;17.90;;;;;;;11.06;100.00;98356.19;5095387;28;20480;-75
2023/10/20 04:02:50;;;;;;;26.88;17.23;;;;;;;11.00;100.00;98343.66;5096182;28;20524;-76
2023/10/20 04:05:19;;;;;;;26.73;17.10;;;;;;;11.00;100.00;98326.97;5094837;28;20048;-75
2023/10/20 04:07:46;;;;;;;30.58;17.67;;;;;;;10.98;100.00;98324.81;5095705;28;20574;-75
2023/10/20 04:10:14;;;;;;;31.25;16.88;;;;;;;10.97;100.00;98328.69;5093950;28;20045;-75
2023/10/20 04:12:41;;;;;;;29.27;17.38;;;;;;;10.95;100.00;98336.44;5095053;28;20094;-75
2023/10/20 04:15:14;;;;;;;26.77;16.77;;;;;;;10.96;100.00;98331.84;5095309;28;20045;-75
2023/10/20 04:17:45;;;;;;;27.75;16.50;;;;;;;10.91;100.00;98324.63;5095466;28;20127;-75
2023/10/20 04:20:18;;;;;;;26.65;16.30;;;;;;;10.89;100.00;98327.06;5094605;28;20497;-75
2023/10/20 04:22:49;;;;;;;29.77;16.35;;;;;;;10.85;100.00;98319.38;5095579;28;20044;-75
2023/10/20 04:25:27;;;;;;;25.45;16.85;;;;;;;10.81;100.00;98305.59;5095382;28;20706;-75
2023/10/20 04:57:53;;;;;;;28.73;15.77;;;;;;;10.63;100.00;98250.41;5094644;28;20473;-76
2023/10/20 05:05:32;;;;;;;27.90;16.38;;;;;;;10.63;100.00;98242.44;5094121;28;20040;-74
2023/10/20 05:10:40;;;;;;;23.05;14.52;;;;;;;10.59;100.00;98228.69;5094762;28;20051;-76
2023/10/20 05:13:11;;;;;;;27.98;16.40;;;;;;;10.57;100.00;98231.84;5094174;28;20049;-76
2023/10/20 05:15:39;;;;;;;25.45;15.18;;;;;;;10.57;100.00;98225.78;5094183;28;20047;-76
2023/10/20 05:18:11;;;;;;;25.63;14.68;;;;;;;10.55;100.00;98217.59;5093852;28;20049;-76
2023/10/20 05:20:40;;;;;;;22.80;14.20;;;;;;;10.54;100.00;98222.19;5094128;28;20489;-76
2023/10/20 05:23:08;;;;;;;24.35;14.60;;;;;;;10.51;100.00;98222.47;5093842;28;20037;-77
2023/10/20 05:25:35;;;;;;;26.20;15.02;;;;;;;10.50;100.00;98205.78;5094380;28;20482;-76
2023/10/20 05:28:01;;;;;;;27.48;14.60;;;;;;;10.50;100.00;98199.75;5094409;28;20418;-76
2023/10/20 05:30:28;;;;;;;21.77;14.48;;;;;;;10.49;100.00;98185.00;5093569;28;20079;-76
2023/10/20 05:32:54;;;;;;;23.00;14.40;;;;;;;10.48;100.00;98172.94;5093959;28;20044;-76
2023/10/20 05:35:21;;;;;;;24.75;13.05;;;;;;;10.46;100.00;98186.72;5093772;28;20519;-76
2023/10/20 05:37:47;;;;;;;16.38;12.30;;;;;;;10.45;100.00;98185.28;5094096;28;21129;-76
2023/10/20 05:40:14;;;;;;;17.33;12.35;;;;;;;10.43;100.00;98179.75;5094181;28;20049;-77
2023/10/20 05:42:41;;;;;;;16.65;12.05;;;;;;;10.42;100.00;98174.91;5092817;28;20135;-76
2023/10/20 05:45:17;;;;;;;20.33;12.95;;;;;;;10.42;100.00;98172.97;5092103;28;20053;-76
2023/10/20 05:47:45;;;;;;;14.38;11.00;;;;;;;10.40;100.00;98180.75;5093341;28;20128;-76
2023/10/20 05:50:12;;;;;;;19.35;11.60;;;;;;;10.39;100.00;98175.94;5091853;28;20469;-76
2023/10/20 05:52:39;;;;;;;20.25;11.30;;;;;;;10.39;100.00;98168.69;5093926;28;20044;-77
2023/10/20 05:55:06;;;;;;;19.88;11.15;;;;;;;10.39;100.00;98181.97;5093443;28;20432;-76
2023/10/20 05:57:33;;;;;;;20.95;11.63;;;;;;;10.39;100.00;98184.66;5093669;28;20079;-77
2023/10/20 05:59:59;;;;;;;15.15;10.05;;;;;;;10.40;100.00;98196.00;5092262;28;20041;-76
2023/10/20 06:02:27;;;;;;;11.90;9.65;;;;;;;10.36;100.00;98196.28;5093113;28;20048;-76
2023/10/20 06:04:54;;;;;;;13.43;9.82;;;;;;;10.35;100.00;98203.53;5093628;28;20048;-74
2023/10/20 06:07:21;;;;;;;23.33;9.07;;;;;;;10.34;100.00;98190.72;5091539;28;20053;-76
2023/10/20 06:09:49;;;;;;;14.38;9.23;;;;;;;10.32;100.00;98187.84;5093829;28;20068;-77
2023/10/20 06:12:16;;;;;;;12.55;8.50;;;;;;;10.32;100.00;98185.19;5091951;28;20044;-76
2023/10/20 06:14:43;;;;;;;12.05;8.63;;;;;;;10.28;100.00;98190.06;5092879;28;20045;-76
2023/10/20 06:17:10;;;;;;;11.50;8.32;;;;;;;10.28;100.00;98200.69;5092194;28;20049;-76
2023/10/20 06:19:37;;;;;;;14.85;8.73;;;;;;;10.25;100.00;98191.78;5093244;28;20044;-76
2023/10/20 06:22:05;;;;;;;10.15;7.82;;;;;;;10.25;100.00;98197.09;5092427;28;20056;-77
2023/10/20 06:24:32;;;;;;;13.07;8.05;;;;;;;10.22;100.00;98190.13;5092298;28;20048;-77
2023/10/20 06:27:02;;;;;;;9.10;7.75;;;;;;;10.24;100.00;98182.34;5093588;28;20044;-74
2023/10/20 06:35:02;;;;;;;9.68;7.97;;;;;;;10.14;100.00;98175.19;5070076;28;20051;-76
2023/10/20 06:37:31;;;;;;;11.27;8.45;;;;;;;10.12;100.00;98185.59;5069919;28;20057;-76
2023/10/20 06:39:57;;;;;;;11.23;8.65;;;;;;;10.12;100.00;98180.28;5070511;28;20049;-76
2023/10/20 06:42:24;;;;;;;12.88;8.82;;;;;;;10.09;100.00;98181.97;5069648;28;20140;-76
2023/10/20 06:44:51;;;;;;;12.07;8.95;;;;;;;10.10;100.00;98193.34;5070155;28;20059;-77
2023/10/20 06:47:19;;;;;;;15.32;9.35;;;;;;;10.09;100.00;98173.28;5052925;28;20056;-76
2023/10/20 06:49:46;;;;;;;11.30;8.68;;;;;;;10.07;100.00;98165.81;5070268;28;20057;-77
2023/10/20 06:52:17;;;;;;;14.27;8.88;;;;;;;10.04;100.00;98164.84;5053267;28;20048;-77
2023/10/20 06:54:48;;;;;;;15.43;9.00;;;;;;;10.03;100.00;98174.06;5052728;28;20049;-78
2023/10/20 06:57:35;;;;;;;30.65;9.27;;;;;;;10.03;100.00;98160.75;5070210;28;20132;-78
2023/10/20 07:00:03;;;;;;;14.95;9.50;;;;;;;10.01;100.00;98176.47;5052849;28;20055;-78
2023/10/20 07:02:30;;;;;;;15.23;9.57;;;;;;;9.98;100.00;98171.47;5035383;28;20049;-77
2023/10/20 07:04:57;;;;;;;15.85;9.85;;;;;;;9.97;100.00;98164.72;5070025;28;20053;-75
2023/10/20 07:07:24;;;;;;;15.18;9.45;;;;;;;9.97;100.00;98162.78;5069390;28;20041;-78
2023/10/20 07:09:50;;;;;;;13.23;9.73;;;;;;;9.96;100.00;98176.56;5070708;28;20580;-75
2023/10/20 07:12:17;;;;;;;12.45;9.40;;;;;;;9.95;100.00;98172.47;5070651;28;20048;-75
2023/10/20 07:14:43;;;;;;;13.35;9.18;;;;;;;9.95;100.00;98157.22;5086926;28;20064;-76
2023/10/20 07:17:11;;;;;;;14.45;9.15;;;;;;;9.98;100.00;98160.84;5087388;28;20061;-79
2023/10/20 07:19:38;;;;;;;13.45;9.55;;;;;;;9.97;100.00;98164.72;5071662;28;20116;-77
2023/10/20 07:22:05;;;;;;;20.25;10.50;;;;;;;9.95;100.00;98151.91;5072264;28;20049;-78
2023/10/20 07:24:32;;;;;;;13.73;8.88;;;;;;;9.89;100.00;98161.88;5071905;28;20572;-78
2023/10/20 07:27:01;;;;;;;13.73;8.93;;;;;;;9.83;100.00;98171.81;5071714;28;20048;-77
2023/10/20 07:29:28;;;;;;;19.30;9.45;;;;;;;9.81;100.00;98170.88;5072597;28;20455;-78
2023/10/20 07:31:55;;;;;;;16.63;10.43;;;;;;;9.81;100.00;98162.91;5091582;28;20124;-78
2023/10/20 07:34:22;;;;;;;15.02;9.30;;;;;;;9.83;100.00;98160.47;5073726;28;20130;-76
2023/10/20 07:36:48;;;;;;;15.32;8.90;;;;;;;9.80;100.00;98150.84;5091423;28;20045;-75
2023/10/20 07:39:16;;;;;;;15.32;9.82;;;;;;;9.78;100.00;98158.56;5108036;28;20103;-76
2023/10/20 07:41:44;;;;;;;16.60;8.85;;;;;;;9.78;100.00;98146.00;5075305;28;20041;-75
2023/10/20 07:44:12;;;;;;;12.57;8.68;;;;;;;9.77;100.00;98138.53;5073953;28;20053;-76
2023/10/20 07:46:41;;;;;;;13.63;9.65;;;;;;;9.78;100.00;98134.66;5073716;28;20572;-75
2023/10/20 07:49:12;;;;;;;14.00;8.75;;;;;;;9.75;100.00;98138.31;5073874;28;20045;-76
2023/10/20 07:51:39;;;;;;;13.32;8.57;;;;;;;9.74;100.00;98147.50;5090365;28;20041;-76
2023/10/20 07:54:08;;;;;;;12.10;8.07;;;;;;;9.74;100.00;98144.84;5073618;28;20500;-76
2023/10/20 07:56:35;;;;;;;11.25;7.38;;;;;;;9.70;100.00;98153.78;5073042;28;20091;-75
2023/10/20 07:59:03;;;;;;;12.80;8.07;;;;;;;9.69;100.00;98149.69;5066396;28;20505;-76
2023/10/20 08:01:30;;;;;;;10.98;7.35;;;;;;;9.67;100.00;98143.44;5093157;28;20075;-76
2023/10/20 08:03:57;;;;;;;10.73;7.00;;;;;;;9.66;100.00;98142.00;5093240;28;20045;-76
2023/10/20 08:06:24;;;;;;;10.20;7.05;;;;;;;9.63;100.00;98150.94;5092194;28;20146;-75
2023/10/20 08:08:52;;;;;;;11.35;7.13;;;;;;;9.63;100.00;98138.38;5076363;28;20080;-77
2023/10/20 08:11:19;;;;;;;7.43;6.20;;;;;;;9.64;100.00;98139.84;5093865;28;20060;-79
2023/10/20 08:13:51;;;;;;;7.50;6.45;;;;;;;9.64;100.00;98139.84;5094214;28;20488;-76
2023/10/20 08:16:20;;;;;;;10.35;5.60;;;;;;;9.65;100.00;98137.91;5092919;28;20051;-76
2023/10/20 08:18:48;;;;;;;8.18;5.75;;;;;;;9.61;100.00;98124.88;5094649;28;20044;-75
2023/10/20 08:21:16;;;;;;;10.00;5.88;;;;;;;9.60;100.00;98120.06;5094210;28;20036;-75
2023/10/20 08:23:43;;;;;;;12.13;5.97;;;;;;;9.60;100.00;98117.41;5092332;28;20049;-76
2023/10/20 08:26:15;;;;;;;6.18;5.20;;;;;;;9.61;100.00;98108.22;5092189;28;20049;-75
2023/10/20 08:28:42;;;;;;;6.38;5.50;;;;;;;9.59;100.00;98122.03;5094157;28;20049;-75
2023/10/20 08:31:12;;;;;;;8.07;5.15;;;;;;;9.57;100.00;98113.84;5094009;28;20059;-75
2023/10/20 08:33:39;;;;;;;5.30;4.35;;;;;;;9.56;100.00;98114.31;5093882;28;20621;-76
2023/10/20 08:36:11;;;;;;;4.50;4.13;;;;;;;9.55;100.00;98112.88;5093954;28;20037;-76
2023/10/20 08:38:39;;;;;;;4.60;4.20;;;;;;;9.53;100.00;98112.66;5093721;28;20045;-77
2023/10/20 08:41:13;;;;;;;5.90;4.30;;;;;;;9.55;100.00;98121.56;5092448;28;20044;-76
2023/10/20 08:43:42;;;;;;;4.30;3.90;;;;;;;9.55;100.00;98120.84;5092451;28;20051;-76
2023/10/20 08:46:11;;;;;;;4.10;3.75;;;;;;;9.53;100.00;98123.28;5093891;28;20044;-76
2023/10/20 08:48:39;;;;;;;3.75;3.45;;;;;;;9.51;100.00;98105.19;5092052;28;20521;-76
2023/10/20 08:51:07;;;;;;;3.90;3.50;;;;;;;9.49;100.00;98102.31;5093683;28;20037;-76
2023/10/20 08:53:36;;;;;;;3.42;3.17;;;;;;;9.46;100.00;98103.28;5093583;28;20374;-76
2023/10/20 08:56:04;;;;;;;3.97;3.58;;;;;;;9.45;100.00;98103.78;5093001;28;20049;-76
2023/10/20 08:58:31;;;;;;;3.58;3.38;;;;;;;9.47;100.00;98109.31;5093424;28;20083;-75
2023/10/20 09:00:59;;;;;;;3.55;2.92;;;;;;;9.44;100.00;98111.03;5094417;28;20485;-76
2023/10/20 09:03:27;;;;;;;3.60;3.30;;;;;;;9.41;100.00;98121.91;5092992;28;21084;-79
2023/10/20 09:06:05;;;;;;;3.10;2.90;;;;;;;9.36;100.00;98104.81;5092472;28;20049;-77
2023/10/20 09:08:33;;;;;;;2.90;2.70;;;;;;;9.36;100.00;98104.81;5091593;28;20075;-77
2023/10/20 09:11:01;;;;;;;2.58;2.38;;;;;;;9.33;100.00;98106.50;5093706;28;20116;-77
2023/10/20 09:13:36;;;;;;;5.43;2.80;;;;;;;9.34;100.00;98096.63;5091443;28;20080;-76
2023/10/20 09:16:13;;;;;;;2.67;2.47;;;;;;;9.34;100.00;98101.94;5092256;28;20501;-76
2023/10/20 09:18:42;;;;;;;2.42;2.33;;;;;;;9.34;100.00;98104.56;5092395;28;20041;-77
2023/10/20 09:21:10;;;;;;;2.53;2.33;;;;;;;9.34;100.00;98091.31;5075087;28;20086;-78
2023/10/20 09:23:39;;;;;;;2.80;2.55;;;;;;;9.32;100.00;98094.44;5092424;28;20586;-76
2023/10/20 09:26:06;;;;;;;2.50;2.30;;;;;;;9.33;100.00;98100.47;5093278;28;20090;-76
2023/10/20 09:28:33;;;;;;;2.80;2.60;;;;;;;9.29;100.00;98098.09;5093225;28;20159;-80
2023/10/20 09:31:03;;;;;;;2.60;2.40;;;;;;;9.30;100.00;98090.84;5093161;28;20182;-77
2023/10/20 09:33:30;;;;;;;2.35;2.20;;;;;;;9.29;100.00;98097.38;5091304;28;20412;-76
2023/10/20 09:35:57;;;;;;;3.35;2.10;;;;;;;9.28;100.00;98101.25;5093260;28;20110;-77
2023/10/20 09:38:26;;;;;;;2.00;1.90;;;;;;;9.23;100.00;98102.00;5092125;28;20048;-78
2023/10/20 09:41:11;;;;;;;2.83;1.73;;;;;;;9.21;100.00;98094.53;5093236;28;20049;-79
2023/10/20 09:43:55;;;;;;;2.35;1.83;;;;;;;9.24;100.00;98098.13;5093128;28;20303;-78
2023/10/20 09:46:52;;;;;;;2.22;2.03;;;;;;;9.22;100.00;98100.56;5092615;28;20124;-79
2023/10/20 09:49:25;;;;;;;1.95;1.80;;;;;;;9.19;100.00;98088.28;5093202;28;20049;-79
2023/10/20 09:51:57;;;;;;;2.13;1.83;;;;;;;9.18;100.00;98086.84;5091436;28;20051;-79
2023/10/20 09:54:32;;;;;;;1.90;1.80;;;;;;;9.12;100.00;98091.47;5092300;28;20103;-77
2023/10/20 09:57:00;;;;;;;1.52;1.42;;;;;;;9.08;100.00;98086.44;5091692;28;20048;-79
2023/10/20 09:59:27;;;;;;;1.85;1.75;;;;;;;9.08;100.00;98085.72;5073952;28;20055;-77
2023/10/20 10:01:56;;;;;;;2.03;1.80;;;;;;;9.09;100.00;98087.88;5074610;28;20135;-79
2023/10/20 10:04:29;;;;;;;2.15;1.50;;;;;;;9.09;100.00;98089.81;5091540;28;20059;-78
2023/10/20 10:06:59;;;;;;;1.65;1.55;;;;;;;9.06;100.00;98085.47;5088207;28;20051;-78
2023/10/20 10:09:43;;;;;;;2.47;1.60;;;;;;;9.05;100.00;98084.03;5092015;28;20345;-77
2023/10/20 10:12:14;;;;;;;1.80;1.70;;;;;;;9.01;100.00;98085.00;5090268;28;20103;-78
2023/10/20 10:14:41;;;;;;;2.17;1.50;;;;;;;9.01;100.00;98073.69;5096782;28;20044;-76
2023/10/20 10:17:11;;;;;;;3.42;1.52;;;;;;;9.05;100.00;98068.13;5094128;28;20321;-77
2023/10/20 10:19:50;;;;;;;1.52;1.42;;;;;;;9.03;100.00;98060.63;5097181;28;20047;-80
2023/10/20 10:22:24;;;;;;;2.25;1.20;;;;;;;9.01;100.00;98071.03;5088944;28;20056;-78
2023/10/20 10:24:54;;;;;;;2.65;1.17;;;;;;;9.00;100.00;98070.31;5073601;28;20044;-79
2023/10/20 10:27:27;;;;;;;1.45;1.35;;;;;;;9.03;100.00;98071.97;5072800;28;20075;-78
2023/10/20 10:30:00;;;;;;;1.50;1.35;;;;;;;9.01;100.00;98052.44;5088187;28;20094;-78
2023/10/20 10:32:31;;;;;;;3.97;1.00;;;;;;;9.00;100.00;98051.00;5091261;28;20098;-76
2023/10/20 10:34:58;;;;;;;1.15;1.15;;;;;;;8.97;100.00;98050.06;5089388;28;20040;-77
2023/10/20 10:37:36;;;;;;;2.50;1.08;;;;;;;9.00;100.00;98040.41;5091055;28;20089;-78
2023/10/20 10:40:12;;;;;;;1.50;1.40;;;;;;;8.96;100.00;98040.66;5090620;28;20048;-76
2023/10/20 10:42:43;;;;;;;1.50;1.20;;;;;;;8.99;100.00;98042.34;5090865;28;20421;-77
2023/10/20 10:45:34;;;;;;;1.00;0.88;;;;;;;8.99;100.00;98031.00;5091930;28;20056;-77
2023/10/20 10:48:18;;;;;;;1.00;1.00;;;;;;;8.99;100.00;98023.03;5092142;28;20048;-78
2023/10/20 10:50:46;;;;;;;1.10;1.10;;;;;;;9.01;100.00;98026.63;5090705;28;20509;-79
2023/10/20 10:53:14;;;;;;;1.58;0.90;;;;;;;9.05;100.00;98023.72;5091331;28;20048;-77
2023/10/20 10:55:42;;;;;;;0.80;0.80;;;;;;;9.06;100.00;98014.53;5090963;28;20060;-76
2023/10/20 10:58:12;;;;;;;0.80;0.80;;;;;;;9.08;100.00;98011.41;5090244;28;20055;-76
2023/10/20 11:00:40;;;;;;;0.80;0.80;;;;;;;9.07;100.00;98015.25;5088862;28;20052;-76
2023/10/20 11:03:08;;;;;;;3.95;0.98;;;;;;;9.02;100.00;98004.19;5090696;28;20136;-76
2023/10/20 11:05:36;;;;;;;1.13;1.13;;;;;;;9.06;100.00;97995.25;5091052;28;20044;-77
2023/10/20 11:08:07;;;;;;;0.80;0.80;;;;;;;9.06;100.00;97997.91;5090360;28;20049;-76
2023/10/20 11:10:37;;;;;;;4.33;0.87;;;;;;;9.03;100.00;97984.41;5091943;28;20146;-76
2023/10/20 11:13:06;;;;;;;1.25;1.25;;;;;;;9.05;100.00;97972.56;5090279;28;20055;-76
2023/10/20 11:15:33;;;;;;;1.73;1.63;;;;;;;9.05;100.00;97970.66;5090003;28;20056;-75
2023/10/20 11:18:01;;;;;;;6.35;5.25;;;;;;;9.05;100.00;97964.63;5091251;28;20095;-77
2023/10/20 11:20:33;;;;;;;2.05;1.95;;;;;;;9.07;100.00;97965.56;5089238;28;20048;-77
2023/10/20 11:23:00;;;;;;;1.23;1.23;;;;;;;9.09;100.00;97954.47;5090615;28;20041;-75
2023/10/20 11:25:28;;;;;;;3.30;3.00;;;;;;;9.10;100.00;97956.63;5089483;28;20048;-76
2023/10/20 11:27:56;;;;;;;1.50;1.40;;;;;;;9.09;100.00;97949.16;5091656;28;20052;-76
2023/10/20 11:30:25;;;;;;;1.58;1.58;;;;;;;9.11;100.00;97944.06;5089487;28;20136;-77
2023/10/20 11:32:53;;;;;;;1.80;1.70;;;;;;;9.12;100.00;97932.22;5091332;28;20044;-76
2023/10/20 11:35:21;;;;;;;1.60;1.50;;;;;;;9.11;100.00;97931.53;5089093;28;20073;-76
2023/10/20 11:37:51;;;;;;;1.58;1.55;;;;;;;9.13;100.00;97934.41;5090079;28;20636;-77
2023/10/20 11:40:19;;;;;;;1.45;1.33;;;;;;;9.14;100.00;97932.47;5089718;28;20049;-75
2023/10/20 11:42:46;;;;;;;1.52;1.30;;;;;;;9.13;100.00;97931.75;5089844;28;20049;-76
2023/10/20 11:45:14;;;;;;;1.58;1.48;;;;;;;9.18;100.00;97927.59;5090267;28;20559;-77
2023/10/20 11:47:43;;;;;;;2.28;2.10;;;;;;;9.21;100.00;97914.03;5090111;28;20056;-77
2023/10/20 11:50:30;;;;;;;1.45;1.45;;;;;;;9.23;100.00;97914.25;5089533;28;20052;-77
2023/10/20 11:53:04;;;;;;;2.47;2.38;;;;;;;9.24;100.00;97922.94;5091329;28;20041;-76
2023/10/20 11:55:44;;;;;;;0.98;0.98;;;;;;;9.23;100.00;97916.19;5088428;28;20114;-77
2023/10/20 11:58:11;;;;;;;3.08;2.88;;;;;;;9.25;100.00;97916.41;5091390;28;20048;-76
2023/10/20 12:00:47;;;;;;;3.08;1.60;;;;;;;9.26;100.00;97910.59;5091031;27;20041;-76
2023/10/20 12:03:15;;;;;;;2.72;1.67;;;;;;;9.23;100.00;97900.97;5090210;28;20106;-76
2023/10/20 12:05:43;;;;;;;1.73;1.63;;;;;;;9.25;100.00;97889.88;5089534;28;20053;-76
2023/10/20 12:08:13;;;;;;;1.80;1.70;;;;;;;9.25;100.00;97881.91;5089572;28;20055;-77
2023/10/20 12:10:43;;;;;;;1.17;1.10;;;;;;;9.26;100.00;97892.03;5090082;28;20255;-77